Terminal Aerodrome Forecast
Issued by NWS Glasgow, MT

Home | Current Version | Previous Version | Text Only | Print | Product List | Glossary On
Versions: 1 2 3 4 5 6 7 8 9 10 11 12 13 14
000
FTUS45 KGGW 301700
TAFGGW
TAF
KGGW 301722Z 3018/3118 11010KT P6SM SCT015 BKN025
     FM302000 13015KT P6SM FEW025
     FM310400 11021KT P6SM SCT250
     FM310800 11030G38KT P6SM BKN200=

USA.gov is the U.S. government's official web portal to all federal, state and local government web resources and services.